sensor_id;sensor_type;location;lat;lon;timestamp;P1;durP1;ratioP1;P2;durP2;ratioP2
40256;SDS011;25977;45.462;9.210;2022-09-21T00:01:07;1.80;;;1.60;;
40256;SDS011;25977;45.462;9.210;2022-09-21T00:03:45;2.72;;;1.42;;
40256;SDS011;25977;45.462;9.210;2022-09-21T00:06:12;4.63;;;1.48;;
40256;SDS011;25977;45.462;9.210;2022-09-21T00:08:39;2.42;;;1.73;;
40256;SDS011;25977;45.462;9.210;2022-09-21T00:11:06;1.83;;;1.52;;
40256;SDS011;25977;45.462;9.210;2022-09-21T00:13:33;2.92;;;1.65;;
40256;SDS011;25977;45.462;9.210;2022-09-21T00:16:03;2.03;;;1.67;;
40256;SDS011;25977;45.462;9.210;2022-09-21T00:18:30;1.45;;;1.35;;
40256;SDS011;25977;45.462;9.210;2022-09-21T00:20:56;1.33;;;1.23;;
40256;SDS011;25977;45.462;9.210;2022-09-21T00:23:21;5.43;;;1.52;;
40256;SDS011;25977;45.462;9.210;2022-09-21T00:25:47;3.90;;;1.52;;
40256;SDS011;25977;45.462;9.210;2022-09-21T00:28:13;2.08;;;1.63;;
40256;SDS011;25977;45.462;9.210;2022-09-21T00:30:39;3.38;;;1.85;;
40256;SDS011;25977;45.462;9.210;2022-09-21T00:33:05;1.98;;;1.60;;
40256;SDS011;25977;45.462;9.210;2022-09-21T00:35:31;4.47;;;2.45;;
40256;SDS011;25977;45.462;9.210;2022-09-21T00:38:01;4.85;;;1.98;;
40256;SDS011;25977;45.462;9.210;2022-09-21T00:40:28;8.57;;;2.13;;
40256;SDS011;25977;45.462;9.210;2022-09-21T00:43:09;19.10;;;3.17;;
40256;SDS011;25977;45.462;9.210;2022-09-21T00:45:36;5.85;;;1.55;;
40256;SDS011;25977;45.462;9.210;2022-09-21T00:48:02;1.25;;;1.10;;
40256;SDS011;25977;45.462;9.210;2022-09-21T00:50:28;3.08;;;1.38;;
40256;SDS011;25977;45.462;9.210;2022-09-21T00:52:54;4.22;;;1.17;;
40256;SDS011;25977;45.462;9.210;2022-09-21T00:55:26;2.13;;;2.00;;
40256;SDS011;25977;45.462;9.210;2022-09-21T00:58:04;2.28;;;1.65;;
40256;SDS011;25977;45.462;9.210;2022-09-21T01:00:35;1.80;;;1.70;;
40256;SDS011;25977;45.462;9.210;2022-09-21T01:03:01;4.43;;;2.22;;
40256;SDS011;25977;45.462;9.210;2022-09-21T01:05:29;3.38;;;1.35;;
40256;SDS011;25977;45.462;9.210;2022-09-21T01:07:56;2.13;;;0.90;;
40256;SDS011;25977;45.462;9.210;2022-09-21T01:10:26;2.88;;;1.40;;
40256;SDS011;25977;45.462;9.210;2022-09-21T01:15:51;0.80;;;0.80;;
40256;SDS011;25977;45.462;9.210;2022-09-21T01:18:34;2.47;;;1.95;;
40256;SDS011;25977;45.462;9.210;2022-09-21T01:32:06;1.20;;;1.10;;
40256;SDS011;25977;45.462;9.210;2022-09-21T01:34:44;2.10;;;1.42;;
40256;SDS011;25977;45.462;9.210;2022-09-21T01:37:27;2.15;;;1.23;;
40256;SDS011;25977;45.462;9.210;2022-09-21T01:40:12;3.88;;;1.00;;
40256;SDS011;25977;45.462;9.210;2022-09-21T01:43:13;3.70;;;1.65;;
40256;SDS011;25977;45.462;9.210;2022-09-21T01:45:45;3.33;;;1.80;;
40256;SDS011;25977;45.462;9.210;2022-09-21T01:48:13;1.77;;;0.85;;
40256;SDS011;25977;45.462;9.210;2022-09-21T01:50:43;3.45;;;0.77;;
40256;SDS011;25977;45.462;9.210;2022-09-21T01:53:12;2.20;;;0.90;;
40256;SDS011;25977;45.462;9.210;2022-09-21T01:55:40;2.03;;;0.88;;
40256;SDS011;25977;45.462;9.210;2022-09-21T01:58:18;3.28;;;0.90;;
40256;SDS011;25977;45.462;9.210;2022-09-21T02:00:53;3.35;;;1.15;;
40256;SDS011;25977;45.462;9.210;2022-09-21T02:03:24;0.90;;;0.90;;
40256;SDS011;25977;45.462;9.210;2022-09-21T02:05:52;1.45;;;0.80;;
40256;SDS011;25977;45.462;9.210;2022-09-21T02:08:18;4.25;;;1.00;;
40256;SDS011;25977;45.462;9.210;2022-09-21T02:10:48;3.80;;;0.82;;
40256;SDS011;25977;45.462;9.210;2022-09-21T02:13:16;0.93;;;0.68;;
40256;SDS011;25977;45.462;9.210;2022-09-21T02:15:49;1.80;;;0.82;;
40256;SDS011;25977;45.462;9.210;2022-09-21T02:20:58;3.53;;;0.87;;
40256;SDS011;25977;45.462;9.210;2022-09-21T02:23:36;1.65;;;0.80;;
40256;SDS011;25977;45.462;9.210;2022-09-21T02:26:23;1.70;;;0.88;;
40256;SDS011;25977;45.462;9.210;2022-09-21T02:31:46;2.30;;;0.73;;
40256;SDS011;25977;45.462;9.210;2022-09-21T02:34:41;0.30;;;0.30;;
40256;SDS011;25977;45.462;9.210;2022-09-21T02:39:57;0.70;;;0.60;;
40256;SDS011;25977;45.462;9.210;2022-09-21T02:42:34;8.07;;;1.17;;
40256;SDS011;25977;45.462;9.210;2022-09-21T02:45:09;1.33;;;0.45;;
40256;SDS011;25977;45.462;9.210;2022-09-21T02:47:59;2.38;;;1.00;;
40256;SDS011;25977;45.462;9.210;2022-09-21T02:50:47;0.82;;;0.82;;
40256;SDS011;25977;45.462;9.210;2022-09-21T02:53:26;1.40;;;0.70;;
40256;SDS011;25977;45.462;9.210;2022-09-21T02:55:55;2.78;;;0.80;;
40256;SDS011;25977;45.462;9.210;2022-09-21T02:58:23;2.47;;;0.85;;
40256;SDS011;25977;45.462;9.210;2022-09-21T03:00:51;2.90;;;0.65;;
40256;SDS011;25977;45.462;9.210;2022-09-21T03:03:21;0.52;;;0.50;;
40256;SDS011;25977;45.462;9.210;2022-09-21T03:05:49;1.20;;;1.10;;
40256;SDS011;25977;45.462;9.210;2022-09-21T03:08:18;2.92;;;0.70;;
40256;SDS011;25977;45.462;9.210;2022-09-21T03:10:43;1.45;;;0.60;;
40256;SDS011;25977;45.462;9.210;2022-09-21T03:13:10;0.85;;;0.82;;
40256;SDS011;25977;45.462;9.210;2022-09-21T03:15:36;0.85;;;0.70;;
40256;SDS011;25977;45.462;9.210;2022-09-21T03:18:03;2.10;;;0.80;;
40256;SDS011;25977;45.462;9.210;2022-09-21T03:20:33;4.90;;;0.75;;
40256;SDS011;25977;45.462;9.210;2022-09-21T03:22:59;2.45;;;1.15;;
40256;SDS011;25977;45.462;9.210;2022-09-21T03:25:25;2.38;;;0.93;;
40256;SDS011;25977;45.462;9.210;2022-09-21T03:27:52;0.80;;;0.75;;
40256;SDS011;25977;45.462;9.210;2022-09-21T03:30:21;1.33;;;0.70;;
40256;SDS011;25977;45.462;9.210;2022-09-21T03:32:51;1.08;;;0.73;;
40256;SDS011;25977;45.462;9.210;2022-09-21T03:35:18;1.70;;;0.70;;
40256;SDS011;25977;45.462;9.210;2022-09-21T03:37:45;1.20;;;0.80;;
40256;SDS011;25977;45.462;9.210;2022-09-21T03:40:12;0.88;;;0.57;;
40256;SDS011;25977;45.462;9.210;2022-09-21T03:42:39;3.55;;;0.85;;
40256;SDS011;25977;45.462;9.210;2022-09-21T03:45:05;3.00;;;0.70;;
40256;SDS011;25977;45.462;9.210;2022-09-21T03:47:33;1.25;;;1.00;;
40256;SDS011;25977;45.462;9.210;2022-09-21T03:49:59;2.67;;;1.08;;
40256;SDS011;25977;45.462;9.210;2022-09-21T03:52:24;1.35;;;0.80;;
40256;SDS011;25977;45.462;9.210;2022-09-21T03:54:50;2.72;;;0.60;;
40256;SDS011;25977;45.462;9.210;2022-09-21T03:57:16;0.50;;;0.50;;
40256;SDS011;25977;45.462;9.210;2022-09-21T03:59:42;2.42;;;1.38;;
40256;SDS011;25977;45.462;9.210;2022-09-21T04:02:07;1.75;;;1.00;;
40256;SDS011;25977;45.462;9.210;2022-09-21T04:04:33;1.10;;;0.82;;
40256;SDS011;25977;45.462;9.210;2022-09-21T04:06:59;6.28;;;1.38;;
40256;SDS011;25977;45.462;9.210;2022-09-21T04:09:25;4.53;;;0.80;;
40256;SDS011;25977;45.462;9.210;2022-09-21T04:11:51;6.10;;;1.40;;
40256;SDS011;25977;45.462;9.210;2022-09-21T04:14:18;0.90;;;0.82;;
40256;SDS011;25977;45.462;9.210;2022-09-21T04:16:44;1.40;;;0.50;;
40256;SDS011;25977;45.462;9.210;2022-09-21T04:19:10;5.82;;;0.50;;
40256;SDS011;25977;45.462;9.210;2022-09-21T04:21:36;3.90;;;0.98;;
40256;SDS011;25977;45.462;9.210;2022-09-21T04:24:02;0.85;;;0.75;;
40256;SDS011;25977;45.462;9.210;2022-09-21T04:26:29;5.43;;;1.08;;
40256;SDS011;25977;45.462;9.210;2022-09-21T04:28:56;2.35;;;1.17;;
40256;SDS011;25977;45.462;9.210;2022-09-21T04:31:23;2.47;;;0.90;;
40256;SDS011;25977;45.462;9.210;2022-09-21T04:33:50;10.20;;;2.20;;
40256;SDS011;25977;45.462;9.210;2022-09-21T04:36:17;4.70;;;1.17;;
40256;SDS011;25977;45.462;9.210;2022-09-21T04:38:44;3.58;;;1.30;;
40256;SDS011;25977;45.462;9.210;2022-09-21T04:41:10;1.95;;;1.40;;
40256;SDS011;25977;45.462;9.210;2022-09-21T04:43:37;2.30;;;1.30;;
40256;SDS011;25977;45.462;9.210;2022-09-21T04:46:06;2.05;;;1.42;;
40256;SDS011;25977;45.462;9.210;2022-09-21T04:48:32;2.22;;;0.90;;
40256;SDS011;25977;45.462;9.210;2022-09-21T04:50:58;1.50;;;1.40;;
40256;SDS011;25977;45.462;9.210;2022-09-21T04:53:24;1.20;;;1.10;;
40256;SDS011;25977;45.462;9.210;2022-09-21T04:55:49;2.45;;;1.10;;
40256;SDS011;25977;45.462;9.210;2022-09-21T04:58:15;1.23;;;1.17;;
40256;SDS011;25977;45.462;9.210;2022-09-21T05:00:41;3.80;;;0.90;;
40256;SDS011;25977;45.462;9.210;2022-09-21T05:03:07;1.50;;;1.40;;
40256;SDS011;25977;45.462;9.210;2022-09-21T05:05:33;2.40;;;1.00;;
40256;SDS011;25977;45.462;9.210;2022-09-21T05:07:59;3.75;;;1.20;;
40256;SDS011;25977;45.462;9.210;2022-09-21T05:10:25;7.40;;;1.80;;
40256;SDS011;25977;45.462;9.210;2022-09-21T05:12:50;1.10;;;1.10;;
40256;SDS011;25977;45.462;9.210;2022-09-21T05:15:16;2.65;;;1.20;;
40256;SDS011;25977;45.462;9.210;2022-09-21T05:17:42;1.50;;;1.08;;
40256;SDS011;25977;45.462;9.210;2022-09-21T05:20:08;2.22;;;1.55;;
40256;SDS011;25977;45.462;9.210;2022-09-21T05:22:35;1.50;;;1.38;;
40256;SDS011;25977;45.462;9.210;2022-09-21T05:25:01;4.43;;;1.30;;
40256;SDS011;25977;45.462;9.210;2022-09-21T05:27:27;3.10;;;1.25;;
40256;SDS011;25977;45.462;9.210;2022-09-21T05:29:53;4.43;;;2.28;;
40256;SDS011;25977;45.462;9.210;2022-09-21T05:34:53;3.28;;;1.50;;
40256;SDS011;25977;45.462;9.210;2022-09-21T05:40:23;7.85;;;1.88;;
40256;SDS011;25977;45.462;9.210;2022-09-21T05:42:49;3.38;;;1.33;;
40256;SDS011;25977;45.462;9.210;2022-09-21T05:45:16;1.50;;;1.40;;
40256;SDS011;25977;45.462;9.210;2022-09-21T05:50:43;0.98;;;0.93;;
40256;SDS011;25977;45.462;9.210;2022-09-21T06:04:31;1.48;;;0.93;;
40256;SDS011;25977;45.462;9.210;2022-09-21T06:06:57;1.67;;;1.05;;
40256;SDS011;25977;45.462;9.210;2022-09-21T06:09:22;1.02;;;1.02;;
40256;SDS011;25977;45.462;9.210;2022-09-21T06:11:50;1.65;;;1.05;;
40256;SDS011;25977;45.462;9.210;2022-09-21T06:14:15;2.80;;;1.10;;
40256;SDS011;25977;45.462;9.210;2022-09-21T06:16:48;3.88;;;0.98;;
40256;SDS011;25977;45.462;9.210;2022-09-21T06:19:14;2.10;;;0.68;;
40256;SDS011;25977;45.462;9.210;2022-09-21T06:21:40;6.22;;;1.35;;
40256;SDS011;25977;45.462;9.210;2022-09-21T06:24:06;1.27;;;0.95;;
40256;SDS011;25977;45.462;9.210;2022-09-21T06:26:32;5.13;;;1.45;;
40256;SDS011;25977;45.462;9.210;2022-09-21T06:28:58;5.35;;;1.13;;
40256;SDS011;25977;45.462;9.210;2022-09-21T06:31:27;1.17;;;1.02;;
40256;SDS011;25977;45.462;9.210;2022-09-21T06:33:53;1.58;;;0.77;;
40256;SDS011;25977;45.462;9.210;2022-09-21T06:36:19;1.92;;;0.80;;
40256;SDS011;25977;45.462;9.210;2022-09-21T06:38:45;3.88;;;1.13;;
40256;SDS011;25977;45.462;9.210;2022-09-21T06:41:11;0.47;;;0.47;;
40256;SDS011;25977;45.462;9.210;2022-09-21T06:43:38;3.30;;;0.90;;
40256;SDS011;25977;45.462;9.210;2022-09-21T06:46:04;1.73;;;0.82;;
40256;SDS011;25977;45.462;9.210;2022-09-21T06:48:31;0.93;;;0.60;;
40256;SDS011;25977;45.462;9.210;2022-09-21T06:50:58;2.22;;;0.68;;
40256;SDS011;25977;45.462;9.210;2022-09-21T06:53:25;2.75;;;0.80;;
40256;SDS011;25977;45.462;9.210;2022-09-21T06:55:52;1.52;;;0.90;;
40256;SDS011;25977;45.462;9.210;2022-09-21T06:58:17;0.45;;;0.40;;
40256;SDS011;25977;45.462;9.210;2022-09-21T07:00:44;0.70;;;0.32;;
40256;SDS011;25977;45.462;9.210;2022-09-21T07:03:10;2.85;;;0.90;;
40256;SDS011;25977;45.462;9.210;2022-09-21T07:05:39;9.85;;;1.90;;
40256;SDS011;25977;45.462;9.210;2022-09-21T07:08:09;0.65;;;0.60;;
40256;SDS011;25977;45.462;9.210;2022-09-21T07:10:35;2.45;;;0.85;;
40256;SDS011;25977;45.462;9.210;2022-09-21T07:13:02;2.25;;;1.00;;
40256;SDS011;25977;45.462;9.210;2022-09-21T07:15:29;6.05;;;0.70;;
40256;SDS011;25977;45.462;9.210;2022-09-21T07:17:55;4.88;;;0.85;;
40256;SDS011;25977;45.462;9.210;2022-09-21T07:20:21;2.15;;;0.50;;
40256;SDS011;25977;45.462;9.210;2022-09-21T07:22:47;0.60;;;0.60;;
40256;SDS011;25977;45.462;9.210;2022-09-21T07:25:12;1.10;;;0.60;;
40256;SDS011;25977;45.462;9.210;2022-09-21T07:27:38;1.00;;;0.88;;
40256;SDS011;25977;45.462;9.210;2022-09-21T07:30:04;0.75;;;0.70;;
40256;SDS011;25977;45.462;9.210;2022-09-21T07:32:30;1.05;;;0.60;;
40256;SDS011;25977;45.462;9.210;2022-09-21T07:34:57;0.82;;;0.50;;
40256;SDS011;25977;45.462;9.210;2022-09-21T07:37:23;3.40;;;0.50;;
40256;SDS011;25977;45.462;9.210;2022-09-21T07:39:49;2.38;;;0.73;;
40256;SDS011;25977;45.462;9.210;2022-09-21T07:42:18;4.43;;;1.70;;
40256;SDS011;25977;45.462;9.210;2022-09-21T07:44:45;2.30;;;1.00;;
40256;SDS011;25977;45.462;9.210;2022-09-21T07:47:11;1.00;;;0.60;;
40256;SDS011;25977;45.462;9.210;2022-09-21T07:49:38;1.02;;;0.70;;
40256;SDS011;25977;45.462;9.210;2022-09-21T07:52:04;0.50;;;0.50;;
40256;SDS011;25977;45.462;9.210;2022-09-21T07:54:30;1.05;;;0.55;;
40256;SDS011;25977;45.462;9.210;2022-09-21T07:56:57;0.47;;;0.45;;
40256;SDS011;25977;45.462;9.210;2022-09-21T07:59:42;2.72;;;0.73;;
40256;SDS011;25977;45.462;9.210;2022-09-21T08:02:07;1.23;;;0.70;;
40256;SDS011;25977;45.462;9.210;2022-09-21T08:04:33;0.32;;;0.32;;
40256;SDS011;25977;45.462;9.210;2022-09-21T08:06:59;1.02;;;0.70;;
40256;SDS011;25977;45.462;9.210;2022-09-21T08:09:24;4.30;;;0.50;;
40256;SDS011;25977;45.462;9.210;2022-09-21T08:11:50;2.17;;;0.80;;
40256;SDS011;25977;45.462;9.210;2022-09-21T08:14:17;1.77;;;0.80;;
40256;SDS011;25977;45.462;9.210;2022-09-21T08:16:46;0.98;;;0.93;;
40256;SDS011;25977;45.462;9.210;2022-09-21T08:19:12;1.35;;;0.70;;
40256;SDS011;25977;45.462;9.210;2022-09-21T08:21:38;4.57;;;0.88;;
40256;SDS011;25977;45.462;9.210;2022-09-21T08:24:06;4.95;;;0.73;;
40256;SDS011;25977;45.462;9.210;2022-09-21T08:26:31;1.15;;;1.10;;
40256;SDS011;25977;45.462;9.210;2022-09-21T08:28:57;3.38;;;1.70;;
40256;SDS011;25977;45.462;9.210;2022-09-21T08:31:23;1.10;;;1.05;;
40256;SDS011;25977;45.462;9.210;2022-09-21T08:33:50;3.17;;;0.98;;
40256;SDS011;25977;45.462;9.210;2022-09-21T08:36:17;3.92;;;0.73;;
40256;SDS011;25977;45.462;9.210;2022-09-21T08:38:43;1.60;;;1.33;;
40256;SDS011;25977;45.462;9.210;2022-09-21T08:43:39;3.28;;;1.17;;
40256;SDS011;25977;45.462;9.210;2022-09-21T08:46:26;3.40;;;1.00;;
40256;SDS011;25977;45.462;9.210;2022-09-21T08:49:02;1.35;;;0.50;;
40256;SDS011;25977;45.462;9.210;2022-09-21T08:51:36;4.03;;;0.88;;
40256;SDS011;25977;45.462;9.210;2022-09-21T08:54:11;4.88;;;1.33;;
40256;SDS011;25977;45.462;9.210;2022-09-21T08:56:57;5.80;;;1.15;;
40256;SDS011;25977;45.462;9.210;2022-09-21T08:59:23;4.93;;;0.80;;
40256;SDS011;25977;45.462;9.210;2022-09-21T09:10:31;2.22;;;0.57;;
40256;SDS011;25977;45.462;9.210;2022-09-21T09:13:23;0.95;;;0.82;;
40256;SDS011;25977;45.462;9.210;2022-09-21T09:18:48;0.47;;;0.40;;
40256;SDS011;25977;45.462;9.210;2022-09-21T09:21:30;4.15;;;1.27;;
40256;SDS011;25977;45.462;9.210;2022-09-21T09:24:02;1.85;;;0.57;;
40256;SDS011;25977;45.462;9.210;2022-09-21T09:26:50;2.83;;;0.70;;
40256;SDS011;25977;45.462;9.210;2022-09-21T09:31:48;3.03;;;0.52;;
40256;SDS011;25977;45.462;9.210;2022-09-21T09:34:38;3.00;;;0.63;;
40256;SDS011;25977;45.462;9.210;2022-09-21T09:37:11;5.93;;;0.50;;
40256;SDS011;25977;45.462;9.210;2022-09-21T09:39:42;5.15;;;0.40;;
40256;SDS011;25977;45.462;9.210;2022-09-21T09:42:17;0.30;;;0.30;;
40256;SDS011;25977;45.462;9.210;2022-09-21T09:50:41;2.22;;;0.30;;
40256;SDS011;25977;45.462;9.210;2022-09-21T09:53:21;1.67;;;0.30;;
40256;SDS011;25977;45.462;9.210;2022-09-21T09:55:52;2.25;;;0.30;;
40256;SDS011;25977;45.462;9.210;2022-09-21T09:58:34;2.42;;;0.30;;
40256;SDS011;25977;45.462;9.210;2022-09-21T10:04:23;0.30;;;0.30;;
40256;SDS011;25977;45.462;9.210;2022-09-21T10:06:49;3.58;;;0.95;;
40256;SDS011;25977;45.462;9.210;2022-09-21T10:11:57;0.43;;;0.20;;
40256;SDS011;25977;45.462;9.210;2022-09-21T10:14:26;0.80;;;0.32;;
40256;SDS011;25977;45.462;9.210;2022-09-21T10:16:55;0.68;;;0.47;;
40256;SDS011;25977;45.462;9.210;2022-09-21T10:19:36;0.30;;;0.30;;
40256;SDS011;25977;45.462;9.210;2022-09-21T10:22:02;0.20;;;0.20;;
40256;SDS011;25977;45.462;9.210;2022-09-21T10:24:30;1.08;;;0.40;;
40256;SDS011;25977;45.462;9.210;2022-09-21T10:29:59;0.30;;;0.25;;
40256;SDS011;25977;45.462;9.210;2022-09-21T10:32:26;1.80;;;0.45;;
40256;SDS011;25977;45.462;9.210;2022-09-21T10:35:01;2.92;;;0.47;;
40256;SDS011;25977;45.462;9.210;2022-09-21T10:37:38;0.85;;;0.43;;
40256;SDS011;25977;45.462;9.210;2022-09-21T10:42:44;3.47;;;0.40;;
40256;SDS011;25977;45.462;9.210;2022-09-21T10:45:13;1.42;;;0.40;;
40256;SDS011;25977;45.462;9.210;2022-09-21T10:50:42;3.70;;;0.30;;
40256;SDS011;25977;45.462;9.210;2022-09-21T10:58:41;1.05;;;0.40;;
40256;SDS011;25977;45.462;9.210;2022-09-21T11:01:34;0.38;;;0.38;;
40256;SDS011;25977;45.462;9.210;2022-09-21T11:04:10;0.38;;;0.38;;
40256;SDS011;25977;45.462;9.210;2022-09-21T11:06:52;0.30;;;0.30;;
40256;SDS011;25977;45.462;9.210;2022-09-21T11:09:40;0.30;;;0.30;;
40256;SDS011;25977;45.462;9.210;2022-09-21T11:26:22;3.53;;;0.40;;
40256;SDS011;25977;45.462;9.210;2022-09-21T11:28:56;1.48;;;0.82;;
40256;SDS011;25977;45.462;9.210;2022-09-21T11:31:40;0.57;;;0.40;;
40256;SDS011;25977;45.462;9.210;2022-09-21T11:46:58;0.55;;;0.32;;
40256;SDS011;25977;45.462;9.210;2022-09-21T11:52:29;1.88;;;0.55;;
40256;SDS011;25977;45.462;9.210;2022-09-21T11:57:59;0.30;;;0.30;;
40256;SDS011;25977;45.462;9.210;2022-09-21T12:00:29;9.38;;;0.90;;
40256;SDS011;25977;45.462;9.210;2022-09-21T12:03:10;1.00;;;0.52;;
40256;SDS011;25977;45.462;9.210;2022-09-21T12:06:01;2.90;;;0.70;;
40256;SDS011;25977;45.462;9.210;2022-09-21T12:11:56;1.35;;;1.02;;
40256;SDS011;25977;45.462;9.210;2022-09-21T12:17:38;0.82;;;0.70;;
40256;SDS011;25977;45.462;9.210;2022-09-21T12:20:12;2.75;;;0.60;;
40256;SDS011;25977;45.462;9.210;2022-09-21T12:22:46;0.40;;;0.40;;
40256;SDS011;25977;45.462;9.210;2022-09-21T12:30:19;3.70;;;0.55;;
40256;SDS011;25977;45.462;9.210;2022-09-21T12:35:24;1.23;;;0.40;;
40256;SDS011;25977;45.462;9.210;2022-09-21T12:38:09;2.78;;;0.60;;
40256;SDS011;25977;45.462;9.210;2022-09-21T12:40:48;0.47;;;0.40;;
40256;SDS011;25977;45.462;9.210;2022-09-21T12:43:35;1.65;;;0.50;;
40256;SDS011;25977;45.462;9.210;2022-09-21T12:46:09;1.10;;;0.50;;
40256;SDS011;25977;45.462;9.210;2022-09-21T12:51:17;2.05;;;0.55;;
40256;SDS011;25977;45.462;9.210;2022-09-21T12:53:48;0.28;;;0.20;;
40256;SDS011;25977;45.462;9.210;2022-09-21T12:59:03;0.43;;;0.43;;
40256;SDS011;25977;45.462;9.210;2022-09-21T13:10:13;1.30;;;0.73;;
40256;SDS011;25977;45.462;9.210;2022-09-21T13:12:39;1.55;;;0.68;;
40256;SDS011;25977;45.462;9.210;2022-09-21T13:15:21;0.32;;;0.30;;
40256;SDS011;25977;45.462;9.210;2022-09-21T13:18:14;1.02;;;0.47;;
40256;SDS011;25977;45.462;9.210;2022-09-21T13:20:43;0.70;;;0.50;;
40256;SDS011;25977;45.462;9.210;2022-09-21T13:23:16;1.00;;;0.40;;
40256;SDS011;25977;45.462;9.210;2022-09-21T13:25:58;3.80;;;0.30;;
40256;SDS011;25977;45.462;9.210;2022-09-21T13:29:06;0.90;;;0.52;;
40256;SDS011;25977;45.462;9.210;2022-09-21T13:45:45;1.83;;;0.40;;
40256;SDS011;25977;45.462;9.210;2022-09-21T13:47:54;0.70;;;0.60;;
40256;SDS011;25977;45.462;9.210;2022-09-21T13:50:25;7.43;;;0.80;;
40256;SDS011;25977;45.462;9.210;2022-09-21T13:53:05;0.75;;;0.57;;
40256;SDS011;25977;45.462;9.210;2022-09-21T13:55:51;6.13;;;0.60;;
40256;SDS011;25977;45.462;9.210;2022-09-21T13:58:26;3.83;;;0.70;;
40256;SDS011;25977;45.462;9.210;2022-09-21T14:01:00;4.15;;;0.50;;
40256;SDS011;25977;45.462;9.210;2022-09-21T14:11:16;3.10;;;1.20;;
40256;SDS011;25977;45.462;9.210;2022-09-21T14:18:58;1.05;;;0.88;;
40256;SDS011;25977;45.462;9.210;2022-09-21T14:21:25;0.80;;;0.80;;
40256;SDS011;25977;45.462;9.210;2022-09-21T14:26:49;4.95;;;1.30;;
40256;SDS011;25977;45.462;9.210;2022-09-21T14:29:23;2.15;;;0.90;;
40256;SDS011;25977;45.462;9.210;2022-09-21T14:32:03;0.75;;;0.75;;
40256;SDS011;25977;45.462;9.210;2022-09-21T14:34:35;2.30;;;1.60;;
40256;SDS011;25977;45.462;9.210;2022-09-21T14:37:15;3.83;;;1.02;;
40256;SDS011;25977;45.462;9.210;2022-09-21T14:39:53;3.25;;;0.70;;
40256;SDS011;25977;45.462;9.210;2022-09-21T14:42:23;1.35;;;0.95;;
40256;SDS011;25977;45.462;9.210;2022-09-21T14:44:52;2.63;;;0.90;;
40256;SDS011;25977;45.462;9.210;2022-09-21T15:10:21;3.22;;;1.58;;
40256;SDS011;25977;45.462;9.210;2022-09-21T15:18:50;2.45;;;0.50;;
40256;SDS011;25977;45.462;9.210;2022-09-21T15:21:38;0.93;;;0.80;;
40256;SDS011;25977;45.462;9.210;2022-09-21T15:24:17;4.40;;;0.80;;
40256;SDS011;25977;45.462;9.210;2022-09-21T15:26:46;0.70;;;0.70;;
40256;SDS011;25977;45.462;9.210;2022-09-21T15:29:26;1.65;;;1.27;;
40256;SDS011;25977;45.462;9.210;2022-09-21T15:31:56;1.40;;;1.30;;
40256;SDS011;25977;45.462;9.210;2022-09-21T15:34:23;1.70;;;0.80;;
40256;SDS011;25977;45.462;9.210;2022-09-21T15:36:49;2.80;;;0.70;;
40256;SDS011;25977;45.462;9.210;2022-09-21T15:39:34;1.65;;;1.17;;
40256;SDS011;25977;45.462;9.210;2022-09-21T15:44:32;1.85;;;0.73;;
40256;SDS011;25977;45.462;9.210;2022-09-21T15:46:58;1.35;;;0.90;;
40256;SDS011;25977;45.462;9.210;2022-09-21T15:49:27;2.80;;;0.93;;
40256;SDS011;25977;45.462;9.210;2022-09-21T15:52:02;2.40;;;0.90;;
40256;SDS011;25977;45.462;9.210;2022-09-21T15:54:48;1.98;;;1.35;;
40256;SDS011;25977;45.462;9.210;2022-09-21T15:57:29;2.63;;;1.08;;
40256;SDS011;25977;45.462;9.210;2022-09-21T16:00:00;2.97;;;1.13;;
40256;SDS011;25977;45.462;9.210;2022-09-21T16:02:31;3.55;;;0.70;;
40256;SDS011;25977;45.462;9.210;2022-09-21T16:05:01;0.90;;;0.60;;
40256;SDS011;25977;45.462;9.210;2022-09-21T16:07:36;1.30;;;0.77;;
40256;SDS011;25977;45.462;9.210;2022-09-21T16:10:24;1.05;;;0.95;;
40256;SDS011;25977;45.462;9.210;2022-09-21T16:13:01;2.15;;;0.75;;
40256;SDS011;25977;45.462;9.210;2022-09-21T16:16:02;2.17;;;0.82;;
40256;SDS011;25977;45.462;9.210;2022-09-21T16:18:31;1.80;;;0.88;;
40256;SDS011;25977;45.462;9.210;2022-09-21T16:21:06;0.98;;;0.82;;
40256;SDS011;25977;45.462;9.210;2022-09-21T16:23:34;1.08;;;0.65;;
40256;SDS011;25977;45.462;9.210;2022-09-21T16:26:03;1.23;;;0.73;;
40256;SDS011;25977;45.462;9.210;2022-09-21T16:28:37;3.88;;;0.63;;
40256;SDS011;25977;45.462;9.210;2022-09-21T16:31:20;0.85;;;0.85;;
40256;SDS011;25977;45.462;9.210;2022-09-21T16:38:46;2.45;;;0.80;;
40256;SDS011;25977;45.462;9.210;2022-09-21T16:41:14;1.85;;;0.63;;
40256;SDS011;25977;45.462;9.210;2022-09-21T16:43:41;0.68;;;0.68;;
40256;SDS011;25977;45.462;9.210;2022-09-21T16:46:11;0.80;;;0.73;;
40256;SDS011;25977;45.462;9.210;2022-09-21T16:48:37;2.60;;;1.55;;
40256;SDS011;25977;45.462;9.210;2022-09-21T16:51:13;4.43;;;1.38;;
40256;SDS011;25977;45.462;9.210;2022-09-21T16:53:46;0.98;;;0.60;;
40256;SDS011;25977;45.462;9.210;2022-09-21T16:56:12;1.02;;;0.60;;
40256;SDS011;25977;45.462;9.210;2022-09-21T16:58:39;1.85;;;0.80;;
40256;SDS011;25977;45.462;9.210;2022-09-21T17:01:08;0.60;;;0.60;;
40256;SDS011;25977;45.462;9.210;2022-09-21T17:03:39;0.65;;;0.65;;
40256;SDS011;25977;45.462;9.210;2022-09-21T17:06:24;0.68;;;0.60;;
40256;SDS011;25977;45.462;9.210;2022-09-21T17:08:51;4.85;;;0.93;;
40256;SDS011;25977;45.462;9.210;2022-09-21T17:11:17;5.00;;;1.02;;
40256;SDS011;25977;45.462;9.210;2022-09-21T17:13:47;3.05;;;1.30;;
40256;SDS011;25977;45.462;9.210;2022-09-21T17:16:14;4.07;;;1.48;;
40256;SDS011;25977;45.462;9.210;2022-09-21T17:18:46;2.40;;;0.80;;
40256;SDS011;25977;45.462;9.210;2022-09-21T17:21:13;4.15;;;1.10;;
40256;SDS011;25977;45.462;9.210;2022-09-21T17:23:40;2.80;;;1.15;;
40256;SDS011;25977;45.462;9.210;2022-09-21T17:26:11;1.30;;;1.20;;
40256;SDS011;25977;45.462;9.210;2022-09-21T17:28:41;2.92;;;1.60;;
40256;SDS011;25977;45.462;9.210;2022-09-21T17:31:12;1.75;;;0.85;;
40256;SDS011;25977;45.462;9.210;2022-09-21T17:33:40;2.05;;;0.93;;
40256;SDS011;25977;45.462;9.210;2022-09-21T17:36:13;5.65;;;0.93;;
40256;SDS011;25977;45.462;9.210;2022-09-21T17:38:40;3.85;;;1.17;;
40256;SDS011;25977;45.462;9.210;2022-09-21T17:44:02;2.90;;;1.15;;
40256;SDS011;25977;45.462;9.210;2022-09-21T17:49:38;1.85;;;1.20;;
40256;SDS011;25977;45.462;9.210;2022-09-21T17:52:08;0.73;;;0.73;;
40256;SDS011;25977;45.462;9.210;2022-09-21T17:54:57;3.00;;;0.82;;
40256;SDS011;25977;45.462;9.210;2022-09-21T17:57:29;1.10;;;0.70;;
40256;SDS011;25977;45.462;9.210;2022-09-21T18:00:11;2.75;;;0.88;;
40256;SDS011;25977;45.462;9.210;2022-09-21T18:02:43;1.65;;;1.00;;
40256;SDS011;25977;45.462;9.210;2022-09-21T18:05:20;2.45;;;1.15;;
40256;SDS011;25977;45.462;9.210;2022-09-21T18:07:47;5.28;;;1.70;;
40256;SDS011;25977;45.462;9.210;2022-09-21T18:10:14;2.20;;;0.98;;
40256;SDS011;25977;45.462;9.210;2022-09-21T18:12:45;1.13;;;1.05;;
40256;SDS011;25977;45.462;9.210;2022-09-21T18:18:17;6.60;;;1.15;;
40256;SDS011;25977;45.462;9.210;2022-09-21T18:21:17;5.45;;;0.98;;
40256;SDS011;25977;45.462;9.210;2022-09-21T18:26:31;6.63;;;1.23;;
40256;SDS011;25977;45.462;9.210;2022-09-21T18:28:59;5.70;;;1.35;;
40256;SDS011;25977;45.462;9.210;2022-09-21T18:34:41;4.30;;;1.30;;
40256;SDS011;25977;45.462;9.210;2022-09-21T18:40:22;1.63;;;1.13;;
40256;SDS011;25977;45.462;9.210;2022-09-21T18:46:11;3.22;;;1.02;;
40256;SDS011;25977;45.462;9.210;2022-09-21T18:51:48;1.40;;;1.30;;
40256;SDS011;25977;45.462;9.210;2022-09-21T18:54:22;3.25;;;1.42;;
40256;SDS011;25977;45.462;9.210;2022-09-21T18:56:51;2.72;;;1.00;;
40256;SDS011;25977;45.462;9.210;2022-09-21T18:59:17;9.40;;;1.17;;
40256;SDS011;25977;45.462;9.210;2022-09-21T19:01:44;2.90;;;1.00;;
40256;SDS011;25977;45.462;9.210;2022-09-21T19:04:11;3.78;;;1.30;;
40256;SDS011;25977;45.462;9.210;2022-09-21T19:20:41;2.13;;;0.85;;